| Date | Time | Temp. (oF) | Dew Point (oF) | Rel. Hum. (%) | Press. (in.) | Wind Dir. (deg.) | Wind Speed (mph) | Hourly Rainfall (i n.) |
|
|---|---|---|---|---|---|---|---|---|---|
| 1 | 12/17 | 24:00 | 32 | 23 | 70 | 30.17 | 270 | 0 | 0.00 |
| 2 | 12/16 | 23:00 | 34 | 23 | 66 | 30.17 | 310 | 2 | 0.00 |
| 3 | 12/16 | 22:00 | 36 | 24 | 62 | 30.15 | 300 | 2 | 0.00 |
| 4 | 12/16 | 21:00 | 36 | 22 | 57 | 30.13 | 270 | 2 | 0.00 |
| 5 | 12/16 | 20:00 | 37 | 23 | 59 | 30.14 | 320 | 2 | 0.00 |
| 6 | 12/16 | 19:00 | 38 | 23 | 55 | 30.12 | 270 | 4 | 0.00 |
| 7 | 12/16 | 18:00 | 39 | 24 | 55 | 30.11 | 290 | 10 | 0.00 |
| 8 | 12/16 | 17:00 | 40 | 28 | 64 | 30.07 | 270 | 10 | 0.00 |
| 9 | 12/16 | 16:00 | 42 | 25 | 51 | 30.04 | 260 | 9 | 0.00 |
| 10 | miss | miss | miss | miss | miss | miss | miss | miss | |
| 11 | 12/16 | 12:59 | 45 | 28 | 52 | 30.02 | 270 | 7 | 0.00 |
| 12 | 12/16 | 12:59 | 45 | 28 | 52 | 30.02 | 270 | 7 | 0.00 |
| 13 | 12/16 | 12:00 | 46 | 28 | 51 | 30.04 | 270 | 11 | 0.00 |
| 14 | 12/16 | 11:00 | 44 | 28 | 54 | 30.06 | 270 | 12 | 0.00 |
| 15 | 12/16 | 10:00 | 44 | 28 | 54 | 30.06 | 270 | 10 | 0.00 |
| 16 | 12/16 | 09:00 | 41 | 28 | 61 | 30.05 | 300 | 6 | 0.00 |
| 17 | 12/16 | 08:00 | 40 | 29 | 65 | 30.04 | 270 | 4 | 0.00 |
| 18 | 12/16 | 07:00 | 41 | 34 | 77 | 30.01 | 270 | 0 | 0.00 |
| 19 | 12/16 | 06:00 | 42 | 34 | 75 | 30.02 | 270 | 0 | 0.00 |
| 20 | 12/16 | 05:00 | 42 | 35 | 78 | 30.02 | 290 | 4 | 0.00 |
| 21 | 12/16 | 04:00 | 43 | 39 | 89 | 30.00 | 300 | 0 | 0.00 |
| 22 | 12/16 | 03:00 | 44 | 40 | 89 | 30.00 | 140 | 0 | 0.00 |
| 23 | 12/16 | 02:00 | 43 | 39 | 89 | 30.00 | 220 | 1 | 0.00 |
| 24 | 12/16 | 01:00 | 43 | 39 | 89 | 30.00 | 130 | 1 | 0.00 |